Time;durP1;ratioP1;P1;durP2;ratioP2;P2;SDS_P1;SDS_P2;PMS_P1;PMS_P2;Temp;Humidity;BMP_temperature;BMP_pressure;BME280_temperature;BME280_humidity;BME280_pressure;Samples;Min_cycle;Max_cycle;Signal;HPM_P1;HPM_P2
2022/12/10 00:01:49;;;;;;;52.77;22.40;;;;;;;;;;5016287;28;20219;-67
2022/12/10 00:04:15;;;;;;;53.53;21.00;;;;;;;;;;5025432;28;20179;-67
2022/12/10 00:06:41;;;;;;;48.47;21.10;;;;;;;;;;5039622;28;20170;-67
2022/12/10 00:09:11;;;;;;;49.97;21.40;;;;;;;;;;5023283;28;20203;-67
2022/12/10 00:11:37;;;;;;;51.83;22.20;;;;;;;;;;5038710;28;20193;-67
2022/12/10 00:14:02;;;;;;;51.50;20.60;;;;;;;;;;5027007;28;20183;-67
2022/12/10 00:16:30;;;;;;;52.07;21.53;;;;;;;;;;5027104;28;20663;-67
2022/12/10 00:18:56;;;;;;;49.07;20.37;;;;;;;;;;5032399;28;20532;-67
2022/12/10 00:21:24;;;;;;;51.53;21.60;;;;;;;;;;5028916;28;20190;-67
2022/12/10 00:23:49;;;;;;;54.03;22.33;;;;;;;;;;5015152;28;20198;-67
2022/12/10 00:26:18;;;;;;;54.63;22.10;;;;;;;;;;5022680;28;20186;-67
2022/12/10 00:28:44;;;;;;;58.60;22.47;;;;;;;;;;5028787;28;20557;-67
2022/12/10 00:31:32;;;;;;;65.33;22.90;;;;;;;;;;5035774;28;20185;-67
2022/12/10 00:34:00;;;;;;;62.90;24.23;;;;;;;;;;5036950;28;20221;-67
2022/12/10 00:36:31;;;;;;;55.77;21.17;;;;;;;;;;5020157;28;20189;-67
2022/12/10 00:38:56;;;;;;;60.07;24.33;;;;;;;;;;5026011;28;20190;-67
2022/12/10 00:41:22;;;;;;;55.37;22.00;;;;;;;;;;5021797;28;20325;-68
2022/12/10 00:43:48;;;;;;;59.07;22.27;;;;;;;;;;5011937;28;20190;-67
2022/12/10 00:46:15;;;;;;;57.93;23.60;;;;;;;;;;5023666;28;20190;-67
2022/12/10 00:48:41;;;;;;;68.47;23.80;;;;;;;;;;5016602;28;20234;-67
2022/12/10 00:51:10;;;;;;;62.73;23.77;;;;;;;;;;5025132;28;20636;-67
2022/12/10 00:53:38;;;;;;;65.17;22.97;;;;;;;;;;5036988;28;20189;-67
2022/12/10 00:56:04;;;;;;;62.97;22.63;;;;;;;;;;5019604;28;20197;-67
2022/12/10 00:58:31;;;;;;;59.03;22.97;;;;;;;;;;5021016;28;20563;-67
2022/12/10 01:01:14;;;;;;;58.70;21.93;;;;;;;;;;5025714;28;20234;-67
2022/12/10 01:03:40;;;;;;;50.27;22.60;;;;;;;;;;5039349;28;20205;-67
2022/12/10 01:06:17;;;;;;;54.73;21.07;;;;;;;;;;5013993;28;20299;-67
2022/12/10 01:08:44;;;;;;;60.17;22.60;;;;;;;;;;5038177;28;20182;-67
2022/12/10 01:11:11;;;;;;;57.37;21.63;;;;;;;;;;5024176;28;20201;-68
2022/12/10 01:13:37;;;;;;;52.67;21.53;;;;;;;;;;5035906;28;20276;-68
2022/12/10 01:16:05;;;;;;;52.20;19.33;;;;;;;;;;5038793;28;20288;-68
2022/12/10 01:18:31;;;;;;;52.13;21.30;;;;;;;;;;5035077;28;20310;-68
2022/12/10 01:21:01;;;;;;;47.77;18.97;;;;;;;;;;5031488;28;20204;-68
2022/12/10 01:23:27;;;;;;;50.20;20.67;;;;;;;;;;5041472;28;20194;-68
2022/12/10 01:25:52;;;;;;;61.17;21.70;;;;;;;;;;5023833;28;20263;-68
2022/12/10 01:28:17;;;;;;;54.17;21.10;;;;;;;;;;5028921;28;20189;-68
2022/12/10 01:30:43;;;;;;;52.73;21.20;;;;;;;;;;5025782;28;20221;-68
2022/12/10 01:33:08;;;;;;;52.10;20.23;;;;;;;;;;5033073;28;20703;-68
2022/12/10 01:35:37;;;;;;;53.37;19.93;;;;;;;;;;5030159;28;20189;-68
2022/12/10 01:38:02;;;;;;;55.90;22.03;;;;;;;;;;5043640;28;20309;-67
2022/12/10 01:40:28;;;;;;;55.43;21.53;;;;;;;;;;5023442;28;20454;-67
2022/12/10 01:42:53;;;;;;;49.93;20.10;;;;;;;;;;5037531;28;20197;-67
2022/12/10 01:45:19;;;;;;;52.77;20.77;;;;;;;;;;5026116;28;20196;-67
2022/12/10 01:47:45;;;;;;;55.53;21.40;;;;;;;;;;5029136;28;20182;-67
2022/12/10 01:50:10;;;;;;;59.83;23.13;;;;;;;;;;5030233;28;20289;-67
2022/12/10 01:52:36;;;;;;;56.90;22.40;;;;;;;;;;5028631;28;20588;-67
2022/12/10 01:55:06;;;;;;;55.17;21.40;;;;;;;;;;5023656;28;20260;-68
2022/12/10 01:57:31;;;;;;;57.53;22.27;;;;;;;;;;5014808;28;20186;-67
2022/12/10 01:59:59;;;;;;;56.20;21.57;;;;;;;;;;5026843;28;20209;-67
2022/12/10 02:02:45;;;;;;;62.37;22.27;;;;;;;;;;5036805;28;20222;-67
2022/12/10 02:05:19;;;;;;;54.97;22.17;;;;;;;;;;5037066;28;20195;-67
2022/12/10 02:08:03;;;;;;;55.00;21.37;;;;;;;;;;5045086;28;20197;-67
2022/12/10 02:10:43;;;;;;;61.60;21.77;;;;;;;;;;5027093;28;20268;-67
2022/12/10 02:13:21;;;;;;;64.83;23.93;;;;;;;;;;5027470;28;20190;-67
2022/12/10 02:15:54;;;;;;;62.43;23.47;;;;;;;;;;5026746;28;20523;-67
2022/12/10 02:18:31;;;;;;;63.43;23.37;;;;;;;;;;5030700;28;20273;-67
2022/12/10 02:21:01;;;;;;;64.70;23.10;;;;;;;;;;5025796;28;20278;-67
2022/12/10 02:23:49;;;;;;;66.27;24.93;;;;;;;;;;5041966;28;20205;-67
2022/12/10 02:26:40;;;;;;;64.37;22.80;;;;;;;;;;5009775;28;20281;-67
2022/12/10 02:29:17;;;;;;;65.70;23.43;;;;;;;;;;5019894;28;20201;-67
2022/12/10 02:31:48;;;;;;;61.70;22.80;;;;;;;;;;5020948;28;20188;-68
2022/12/10 02:34:16;;;;;;;68.17;25.83;;;;;;;;;;5013588;28;20270;-68
2022/12/10 02:36:46;;;;;;;76.90;26.43;;;;;;;;;;5023258;28;20373;-68
2022/12/10 02:39:15;;;;;;;71.63;26.13;;;;;;;;;;5027155;28;20392;-68
2022/12/10 02:41:46;;;;;;;74.30;26.33;;;;;;;;;;5021635;28;20226;-68
2022/12/10 02:44:15;;;;;;;72.80;27.57;;;;;;;;;;5016775;28;20186;-68
2022/12/10 02:46:44;;;;;;;73.93;27.60;;;;;;;;;;5022137;28;20244;-67
2022/12/10 02:49:13;;;;;;;70.30;27.20;;;;;;;;;;5025835;28;20213;-68
2022/12/10 02:51:38;;;;;;;79.23;29.33;;;;;;;;;;5018590;28;20187;-68
2022/12/10 02:54:06;;;;;;;78.90;28.47;;;;;;;;;;5030185;28;20199;-68
2022/12/10 02:56:44;;;;;;;74.93;29.30;;;;;;;;;;5013658;28;20269;-68
2022/12/10 02:59:25;;;;;;;79.90;29.13;;;;;;;;;;5037416;28;20186;-67
2022/12/10 03:02:00;;;;;;;82.07;28.93;;;;;;;;;;5043997;28;20233;-67
2022/12/10 03:04:36;;;;;;;87.73;30.20;;;;;;;;;;5024762;28;20544;-67
2022/12/10 03:07:09;;;;;;;83.23;30.73;;;;;;;;;;5026079;28;20190;-67
2022/12/10 03:09:48;;;;;;;79.70;29.93;;;;;;;;;;5016606;28;20285;-67
2022/12/10 03:12:24;;;;;;;74.50;27.20;;;;;;;;;;5026051;28;20192;-67
2022/12/10 03:14:50;;;;;;;84.80;29.80;;;;;;;;;;5012433;28;20196;-67
2022/12/10 03:17:16;;;;;;;73.17;27.53;;;;;;;;;;5021792;28;20202;-67
2022/12/10 03:19:47;;;;;;;77.47;28.13;;;;;;;;;;5025959;28;20251;-67
2022/12/10 03:22:16;;;;;;;74.43;29.23;;;;;;;;;;5030332;28;20208;-67
2022/12/10 03:24:43;;;;;;;82.10;30.23;;;;;;;;;;5037248;28;20880;-67
2022/12/10 03:27:12;;;;;;;82.07;29.70;;;;;;;;;;5031013;28;20186;-68
2022/12/10 03:29:45;;;;;;;84.50;30.53;;;;;;;;;;5025188;28;20211;-67
2022/12/10 03:32:13;;;;;;;79.03;29.43;;;;;;;;;;5011057;28;20206;-67
2022/12/10 03:34:40;;;;;;;91.37;30.00;;;;;;;;;;5022669;28;20534;-67
2022/12/10 03:37:06;;;;;;;81.37;29.27;;;;;;;;;;5018908;28;20193;-68
2022/12/10 03:39:32;;;;;;;88.63;29.00;;;;;;;;;;5023953;28;20174;-68
2022/12/10 03:41:57;;;;;;;93.20;30.97;;;;;;;;;;5018795;28;20550;-67
2022/12/10 03:44:34;;;;;;;85.17;30.57;;;;;;;;;;5025208;28;20193;-67
2022/12/10 03:47:01;;;;;;;87.80;30.20;;;;;;;;;;5010826;28;20218;-67
2022/12/10 03:49:27;;;;;;;88.00;29.00;;;;;;;;;;5025347;28;20213;-67
2022/12/10 03:51:52;;;;;;;77.00;28.23;;;;;;;;;;5026591;28;20706;-67
2022/12/10 03:54:17;;;;;;;87.30;27.07;;;;;;;;;;5027494;28;20194;-67
2022/12/10 03:56:43;;;;;;;90.57;29.50;;;;;;;;;;5014124;28;20191;-67
2022/12/10 03:59:08;;;;;;;85.00;29.00;;;;;;;;;;5027961;28;20190;-67
2022/12/10 04:01:33;;;;;;;91.70;29.97;;;;;;;;;;5026426;28;20225;-68
2022/12/10 04:03:59;;;;;;;87.43;28.37;;;;;;;;;;5023625;28;20680;-67
2022/12/10 04:06:24;;;;;;;82.00;27.00;;;;;;;;;;5021306;28;20569;-67
2022/12/10 04:08:52;;;;;;;87.20;27.70;;;;;;;;;;5029144;28;20197;-69
2022/12/10 04:11:17;;;;;;;83.93;28.10;;;;;;;;;;5026611;28;20645;-67
2022/12/10 04:16:28;;;;;;;82.10;26.50;;;;;;;;;;5018969;28;20292;-67
2022/12/10 04:19:00;;;;;;;85.90;28.17;;;;;;;;;;5016922;28;20187;-68
2022/12/10 04:26:57;;;;;;;89.17;28.93;;;;;;;;;;5011372;28;20201;-68
2022/12/10 04:29:25;;;;;;;86.13;26.70;;;;;;;;;;5011206;28;20558;-67
2022/12/10 04:31:51;;;;;;;88.30;28.23;;;;;;;;;;5016635;28;20185;-68
2022/12/10 04:34:17;;;;;;;94.70;29.10;;;;;;;;;;5024801;28;20492;-67
2022/12/10 04:36:42;;;;;;;85.67;28.30;;;;;;;;;;5021296;28;20174;-67
2022/12/10 04:39:07;;;;;;;88.17;28.13;;;;;;;;;;5012945;28;20276;-67
2022/12/10 04:41:33;;;;;;;86.27;28.13;;;;;;;;;;5014031;28;20205;-67
2022/12/10 04:43:58;;;;;;;92.83;29.27;;;;;;;;;;5013551;28;20244;-67
2022/12/10 04:46:24;;;;;;;91.67;28.57;;;;;;;;;;5011600;28;20186;-67
2022/12/10 04:48:49;;;;;;;81.23;27.87;;;;;;;;;;5026480;28;20585;-68
2022/12/10 04:51:14;;;;;;;88.10;28.20;;;;;;;;;;5017280;28;20186;-67
2022/12/10 04:53:40;;;;;;;92.23;28.83;;;;;;;;;;5029372;28;20781;-68
2022/12/10 04:56:06;;;;;;;71.53;26.73;;;;;;;;;;5026544;28;20697;-67
2022/12/10 04:58:32;;;;;;;89.07;27.07;;;;;;;;;;5024004;28;20509;-68
2022/12/10 05:01:06;;;;;;;94.70;28.97;;;;;;;;;;5013297;28;20285;-68
2022/12/10 05:03:32;;;;;;;84.43;26.97;;;;;;;;;;5025365;28;20602;-67
2022/12/10 05:06:06;;;;;;;82.83;28.83;;;;;;;;;;5023128;28;20538;-68
2022/12/10 05:08:32;;;;;;;87.77;27.57;;;;;;;;;;5023406;28;20587;-67
2022/12/10 05:11:02;;;;;;;97.30;28.83;;;;;;;;;;5012449;28;20226;-67
2022/12/10 05:13:27;;;;;;;91.13;28.07;;;;;;;;;;5023314;28;20388;-67
2022/12/10 05:15:53;;;;;;;100.77;28.87;;;;;;;;;;5022825;28;20825;-68
2022/12/10 05:18:18;;;;;;;99.60;29.07;;;;;;;;;;5022761;28;20215;-67
2022/12/10 05:20:43;;;;;;;89.53;28.47;;;;;;;;;;5027802;28;20178;-67
2022/12/10 05:26:14;;;;;;;105.80;30.07;;;;;;;;;;5025262;28;20201;-67
2022/12/10 05:28:46;;;;;;;99.07;28.83;;;;;;;;;;5029213;28;20188;-67
2022/12/10 05:31:17;;;;;;;112.80;31.27;;;;;;;;;;5021131;28;20770;-67
2022/12/10 05:33:43;;;;;;;94.17;28.23;;;;;;;;;;5037333;28;20185;-67
2022/12/10 05:36:11;;;;;;;104.07;31.23;;;;;;;;;;5026354;28;20213;-67
2022/12/10 05:38:37;;;;;;;88.83;29.10;;;;;;;;;;5028606;28;20182;-67
2022/12/10 05:41:08;;;;;;;103.23;30.83;;;;;;;;;;5029816;28;20195;-68
2022/12/10 05:43:33;;;;;;;91.93;29.20;;;;;;;;;;5028453;28;20547;-67
2022/12/10 05:46:00;;;;;;;101.07;30.33;;;;;;;;;;5025617;28;20244;-67
2022/12/10 05:48:26;;;;;;;102.47;31.03;;;;;;;;;;5015016;28;20564;-67
2022/12/10 05:50:51;;;;;;;100.60;29.30;;;;;;;;;;5023327;28;20253;-68
2022/12/10 05:53:17;;;;;;;105.77;32.00;;;;;;;;;;5031687;28;20197;-68
2022/12/10 05:55:43;;;;;;;95.60;29.90;;;;;;;;;;5019340;28;20186;-68
2022/12/10 05:58:08;;;;;;;103.30;31.13;;;;;;;;;;5019975;28;20376;-68
2022/12/10 06:00:34;;;;;;;108.23;30.73;;;;;;;;;;5028504;28;20205;-68
2022/12/10 06:02:59;;;;;;;104.73;31.90;;;;;;;;;;5014101;28;20293;-68
2022/12/10 06:05:24;;;;;;;107.67;31.80;;;;;;;;;;5016867;28;20265;-68
2022/12/10 06:07:50;;;;;;;100.73;30.37;;;;;;;;;;5009438;28;20265;-68
2022/12/10 06:10:15;;;;;;;104.43;30.37;;;;;;;;;;5027516;28;20209;-68
2022/12/10 06:12:41;;;;;;;95.40;29.20;;;;;;;;;;5017432;28;20244;-68
2022/12/10 06:15:06;;;;;;;99.40;28.93;;;;;;;;;;5026419;28;20269;-68
2022/12/10 06:17:32;;;;;;;111.40;32.97;;;;;;;;;;5019403;28;20186;-68
2022/12/10 06:19:57;;;;;;;101.57;29.67;;;;;;;;;;5026505;28;20638;-67
2022/12/10 06:22:23;;;;;;;113.03;31.33;;;;;;;;;;5022566;28;20296;-68
2022/12/10 06:24:48;;;;;;;103.00;29.90;;;;;;;;;;5034472;28;20198;-68
2022/12/10 06:27:14;;;;;;;106.37;31.27;;;;;;;;;;5030370;28;20197;-68
2022/12/10 06:29:39;;;;;;;113.63;32.37;;;;;;;;;;5022997;28;20205;-68
2022/12/10 06:32:05;;;;;;;108.53;31.87;;;;;;;;;;5020366;28;20853;-67
2022/12/10 06:34:30;;;;;;;102.83;31.73;;;;;;;;;;5025361;28;20204;-67
2022/12/10 06:36:56;;;;;;;103.37;31.37;;;;;;;;;;5021370;28;20189;-66
2022/12/10 06:39:21;;;;;;;115.33;30.30;;;;;;;;;;5024322;28;20186;-67
2022/12/10 06:41:46;;;;;;;117.00;32.43;;;;;;;;;;5012687;28;20186;-66
2022/12/10 06:44:12;;;;;;;114.37;29.93;;;;;;;;;;5015380;28;20182;-66
2022/12/10 06:46:40;;;;;;;115.67;31.90;;;;;;;;;;5013935;28;20292;-66
2022/12/10 06:49:06;;;;;;;119.90;32.47;;;;;;;;;;5015040;28;20632;-67
2022/12/10 06:51:32;;;;;;;105.07;29.83;;;;;;;;;;5015447;28;20193;-66
2022/12/10 06:53:57;;;;;;;110.23;33.10;;;;;;;;;;5014742;28;20194;-66
2022/12/10 06:56:22;;;;;;;107.20;29.80;;;;;;;;;;5012360;28;20591;-66
2022/12/10 06:58:48;;;;;;;113.13;32.90;;;;;;;;;;5017764;28;20187;-66
2022/12/10 07:01:16;;;;;;;109.03;30.53;;;;;;;;;;5021481;28;20736;-66
2022/12/10 07:03:42;;;;;;;116.73;32.27;;;;;;;;;;5017652;28;20202;-67
2022/12/10 07:06:08;;;;;;;111.10;32.83;;;;;;;;;;5024250;28;20237;-68
2022/12/10 07:08:35;;;;;;;112.10;31.70;;;;;;;;;;5026737;28;20210;-67
2022/12/10 07:11:03;;;;;;;110.97;30.70;;;;;;;;;;5017892;28;20210;-67
2022/12/10 07:13:29;;;;;;;105.67;31.13;;;;;;;;;;5016645;28;20715;-67
2022/12/10 07:15:54;;;;;;;103.60;31.37;;;;;;;;;;5015914;28;20191;-67
2022/12/10 07:18:19;;;;;;;114.40;31.87;;;;;;;;;;5029740;28;20186;-67
2022/12/10 07:20:45;;;;;;;118.23;32.73;;;;;;;;;;5033906;28;20253;-67
2022/12/10 07:23:10;;;;;;;119.90;33.20;;;;;;;;;;5029861;28;20675;-67
2022/12/10 07:25:35;;;;;;;123.07;34.03;;;;;;;;;;5037720;28;20190;-67
2022/12/10 07:28:01;;;;;;;123.33;32.97;;;;;;;;;;5012714;28;20185;-67
2022/12/10 07:30:26;;;;;;;113.57;31.63;;;;;;;;;;5015942;28;20260;-67
2022/12/10 07:32:51;;;;;;;110.87;31.13;;;;;;;;;;5012573;28;20190;-67
2022/12/10 07:35:17;;;;;;;101.60;30.27;;;;;;;;;;5012470;28;20592;-67
2022/12/10 07:37:42;;;;;;;119.90;31.90;;;;;;;;;;5012337;28;20179;-67
2022/12/10 07:40:08;;;;;;;121.43;32.57;;;;;;;;;;5027376;28;20205;-68
2022/12/10 07:42:34;;;;;;;128.30;35.47;;;;;;;;;;5027980;28;20231;-67
2022/12/10 07:44:59;;;;;;;124.80;33.00;;;;;;;;;;5027586;28;20649;-67
2022/12/10 07:47:25;;;;;;;117.33;32.43;;;;;;;;;;5025432;28;20236;-68
2022/12/10 07:49:50;;;;;;;131.77;34.10;;;;;;;;;;5034385;28;20254;-68
2022/12/10 07:52:15;;;;;;;105.60;31.87;;;;;;;;;;5019940;28;20324;-68
2022/12/10 07:54:41;;;;;;;110.07;31.07;;;;;;;;;;4326800;28;9999923;-68
2022/12/10 07:57:06;;;;;;;119.43;34.17;;;;;;;;;;5031822;28;20701;-68
2022/12/10 07:59:31;;;;;;;117.17;33.07;;;;;;;;;;5021925;28;20194;-68
2022/12/10 08:01:57;;;;;;;124.57;33.77;;;;;;;;;;5024166;28;20728;-68
2022/12/10 08:04:22;;;;;;;114.53;32.73;;;;;;;;;;5038083;28;20186;-68
2022/12/10 08:06:48;;;;;;;127.97;34.07;;;;;;;;;;5022570;28;20186;-68
2022/12/10 08:09:13;;;;;;;130.87;35.50;;;;;;;;;;5028049;28;20755;-68
2022/12/10 08:11:38;;;;;;;125.83;35.20;;;;;;;;;;5024710;28;20541;-68
2022/12/10 08:14:04;;;;;;;130.63;36.20;;;;;;;;;;5028397;28;20243;-68
2022/12/10 08:16:30;;;;;;;116.07;32.83;;;;;;;;;;5022500;28;20677;-68
2022/12/10 08:18:58;;;;;;;110.73;31.67;;;;;;;;;;5023638;28;20257;-68
2022/12/10 08:21:26;;;;;;;120.83;35.63;;;;;;;;;;5023115;28;20213;-68
2022/12/10 08:23:53;;;;;;;134.10;38.20;;;;;;;;;;5027104;28;20646;-68
2022/12/10 08:26:24;;;;;;;127.50;38.23;;;;;;;;;;5026275;28;20182;-68
2022/12/10 08:28:50;;;;;;;145.30;39.17;;;;;;;;;;5020143;28;20297;-69
2022/12/10 08:31:18;;;;;;;138.70;41.20;;;;;;;;;;5030520;28;20183;-68
2022/12/10 08:33:43;;;;;;;130.73;39.70;;;;;;;;;;5022131;28;20189;-69
2022/12/10 08:36:12;;;;;;;136.20;40.73;;;;;;;;;;5025306;28;20182;-68
2022/12/10 08:38:38;;;;;;;131.93;41.07;;;;;;;;;;5022167;28;20268;-68
2022/12/10 08:41:18;;;;;;;125.80;40.07;;;;;;;;;;5024264;28;20677;-69
2022/12/10 08:43:43;;;;;;;136.70;41.07;;;;;;;;;;5022138;28;20189;-68
2022/12/10 08:46:10;;;;;;;142.57;41.37;;;;;;;;;;5021884;28;20594;-68
2022/12/10 08:48:37;;;;;;;133.43;39.87;;;;;;;;;;5022417;28;20201;-68
2022/12/10 08:51:03;;;;;;;138.00;42.80;;;;;;;;;;5021898;28;20216;-68
2022/12/10 08:53:29;;;;;;;129.83;42.53;;;;;;;;;;5022396;28;20222;-68
2022/12/10 08:55:55;;;;;;;129.57;40.47;;;;;;;;;;5024646;28;20225;-68
2022/12/10 08:58:21;;;;;;;140.70;43.70;;;;;;;;;;5016165;28;20273;-68
2022/12/10 09:00:47;;;;;;;121.73;43.50;;;;;;;;;;5021964;28;20502;-68
2022/12/10 09:03:13;;;;;;;135.77;45.73;;;;;;;;;;5014238;28;20313;-68
2022/12/10 09:05:38;;;;;;;133.03;44.37;;;;;;;;;;5018591;28;20721;-68
2022/12/10 09:08:04;;;;;;;135.57;43.67;;;;;;;;;;5013711;28;20178;-68
2022/12/10 09:10:29;;;;;;;124.87;44.70;;;;;;;;;;5024504;28;20206;-68
2022/12/10 09:12:54;;;;;;;127.57;43.90;;;;;;;;;;5026477;28;20210;-68
2022/12/10 09:15:20;;;;;;;132.20;44.80;;;;;;;;;;5013832;28;20186;-68
2022/12/10 09:17:45;;;;;;;132.43;45.53;;;;;;;;;;5037841;28;20258;-67
2022/12/10 09:20:11;;;;;;;119.40;42.00;;;;;;;;;;5027489;28;20174;-68
2022/12/10 09:22:36;;;;;;;120.07;42.43;;;;;;;;;;5025526;28;20186;-68
2022/12/10 09:25:04;;;;;;;130.63;45.03;;;;;;;;;;5043061;28;20197;-68
2022/12/10 09:27:30;;;;;;;132.93;45.93;;;;;;;;;;5033720;28;20198;-68
2022/12/10 09:29:55;;;;;;;123.23;44.10;;;;;;;;;;5027790;28;20212;-68
2022/12/10 09:32:20;;;;;;;125.73;44.03;;;;;;;;;;5035827;28;20259;-68
2022/12/10 09:34:46;;;;;;;127.20;44.20;;;;;;;;;;5010256;28;20265;-68
2022/12/10 09:37:11;;;;;;;121.00;44.67;;;;;;;;;;5017621;28;20182;-68
2022/12/10 09:39:36;;;;;;;128.80;45.40;;;;;;;;;;5026068;28;20253;-68
2022/12/10 09:42:23;;;;;;;130.03;43.90;;;;;;;;;;5027271;28;20182;-68
2022/12/10 09:45:02;;;;;;;126.77;42.23;;;;;;;;;;5021822;28;20275;-68
2022/12/10 09:48:01;;;;;;;114.10;41.10;;;;;;;;;;5019382;28;20209;-68
2022/12/10 09:50:48;;;;;;;123.30;40.63;;;;;;;;;;5026335;28;20201;-68
2022/12/10 09:53:17;;;;;;;113.03;41.90;;;;;;;;;;5023356;28;20205;-68
2022/12/10 09:55:45;;;;;;;121.27;43.00;;;;;;;;;;5021723;28;20256;-68
2022/12/10 09:58:20;;;;;;;129.23;43.77;;;;;;;;;;5030705;28;20881;-68
2022/12/10 10:00:49;;;;;;;120.03;43.20;;;;;;;;;;5020449;28;20289;-68
2022/12/10 10:03:16;;;;;;;115.90;41.03;;;;;;;;;;5021804;28;20332;-68
2022/12/10 10:05:45;;;;;;;122.70;41.90;;;;;;;;;;5009378;28;20453;-68
2022/12/10 10:08:33;;;;;;;109.30;41.47;;;;;;;;;;5015251;28;20697;-68
2022/12/10 10:10:59;;;;;;;109.93;40.67;;;;;;;;;;5007848;28;20214;-68
2022/12/10 10:13:42;;;;;;;99.67;39.23;;;;;;;;;;5013063;28;20222;-68
2022/12/10 10:16:22;;;;;;;102.77;39.00;;;;;;;;;;5026755;28;20185;-68
2022/12/10 10:19:09;;;;;;;99.77;35.97;;;;;;;;;;5017001;28;20664;-68
2022/12/10 10:21:39;;;;;;;104.23;36.17;;;;;;;;;;5028110;28;20214;-68
2022/12/10 10:24:06;;;;;;;95.57;36.03;;;;;;;;;;5029043;28;20519;-68
2022/12/10 10:26:32;;;;;;;98.67;36.10;;;;;;;;;;5013716;28;20254;-68
2022/12/10 10:29:04;;;;;;;98.00;35.73;;;;;;;;;;5012680;28;20277;-68
2022/12/10 10:31:32;;;;;;;98.53;34.90;;;;;;;;;;5013024;28;20209;-68
2022/12/10 10:34:04;;;;;;;101.23;36.47;;;;;;;;;;5019563;28;20190;-68
2022/12/10 10:36:35;;;;;;;97.93;38.37;;;;;;;;;;5010773;28;20226;-68
2022/12/10 10:39:27;;;;;;;101.57;36.90;;;;;;;;;;5029587;28;20247;-68
2022/12/10 10:41:56;;;;;;;95.13;35.03;;;;;;;;;;5022401;28;20190;-68
2022/12/10 10:44:24;;;;;;;93.67;35.40;;;;;;;;;;5021967;28;20573;-68
2022/12/10 10:46:53;;;;;;;102.50;36.57;;;;;;;;;;5031140;28;20479;-67
2022/12/10 10:49:22;;;;;;;91.10;34.53;;;;;;;;;;5020232;28;20271;-69
2022/12/10 10:51:48;;;;;;;103.33;36.23;;;;;;;;;;5025386;28;20497;-68
2022/12/10 10:54:43;;;;;;;99.67;36.80;;;;;;;;;;5015676;28;20514;-68
2022/12/10 10:57:36;;;;;;;97.23;34.13;;;;;;;;;;5017606;28;20186;-68
2022/12/10 11:00:17;;;;;;;91.67;31.97;;;;;;;;;;5022635;28;20230;-68
2022/12/10 11:02:43;;;;;;;95.17;33.93;;;;;;;;;;5021699;28;20225;-68
2022/12/10 11:05:17;;;;;;;91.83;34.67;;;;;;;;;;5015658;28;20285;-68
2022/12/10 11:07:42;;;;;;;104.97;35.73;;;;;;;;;;5020162;28;20205;-68
2022/12/10 11:10:23;;;;;;;94.10;34.57;;;;;;;;;;5021593;28;20548;-68
2022/12/10 11:13:05;;;;;;;89.30;32.77;;;;;;;;;;5035525;28;20173;-68
2022/12/10 11:15:36;;;;;;;94.00;35.10;;;;;;;;;;5037136;28;20190;-68
2022/12/10 11:18:20;;;;;;;98.97;35.83;;;;;;;;;;5028502;28;20313;-68
2022/12/10 11:21:21;;;;;;;90.90;34.60;;;;;;;;;;5038596;28;20178;-68
2022/12/10 11:23:49;;;;;;;89.37;34.63;;;;;;;;;;5014704;28;20197;-68
2022/12/10 11:26:45;;;;;;;92.53;33.87;;;;;;;;;;5045273;28;20185;-68
2022/12/10 11:29:42;;;;;;;81.40;34.07;;;;;;;;;;5030728;28;20556;-68
2022/12/10 11:32:26;;;;;;;88.07;33.10;;;;;;;;;;5032928;28;20186;-68
2022/12/10 11:35:12;;;;;;;82.83;32.53;;;;;;;;;;5031372;28;20193;-68
2022/12/10 11:37:48;;;;;;;78.50;29.07;;;;;;;;;;5037546;28;20563;-68
2022/12/10 11:40:35;;;;;;;101.83;38.33;;;;;;;;;;5025720;28;20220;-68
2022/12/10 11:43:21;;;;;;;88.50;31.77;;;;;;;;;;5025342;28;20190;-68
2022/12/10 11:46:11;;;;;;;85.10;32.43;;;;;;;;;;5020492;28;20285;-68
2022/12/10 11:49:15;;;;;;;83.57;30.70;;;;;;;;;;5026597;28;20276;-68
2022/12/10 11:52:04;;;;;;;90.70;32.37;;;;;;;;;;5009274;28;20699;-68
2022/12/10 11:54:38;;;;;;;92.57;33.37;;;;;;;;;;5022765;28;20182;-69
2022/12/10 11:57:26;;;;;;;81.17;31.47;;;;;;;;;;5012355;28;20255;-69
2022/12/10 12:00:03;;;;;;;84.17;33.10;;;;;;;;;;5011112;28;20322;-69
2022/12/10 12:02:50;;;;;;;83.83;32.00;;;;;;;;;;5036699;28;20255;-68
2022/12/10 12:05:40;;;;;;;83.57;32.80;;;;;;;;;;5016659;28;20197;-68
2022/12/10 12:08:08;;;;;;;83.93;31.30;;;;;;;;;;5022312;28;20241;-68
2022/12/10 12:10:39;;;;;;;77.67;32.47;;;;;;;;;;5022316;28;20212;-69
2022/12/10 12:13:10;;;;;;;83.23;31.00;;;;;;;;;;5020720;28;20177;-69
2022/12/10 12:15:42;;;;;;;70.70;28.57;;;;;;;;;;5021487;28;20204;-68
2022/12/10 12:18:39;;;;;;;80.40;29.47;;;;;;;;;;5020203;28;20182;-68
2022/12/10 12:21:10;;;;;;;75.33;29.23;;;;;;;;;;5023472;28;20588;-68
2022/12/10 12:23:46;;;;;;;74.53;30.03;;;;;;;;;;5022035;28;20171;-69
2022/12/10 12:26:17;;;;;;;75.27;29.37;;;;;;;;;;5014725;28;20186;-69
2022/12/10 12:29:19;;;;;;;81.93;32.27;;;;;;;;;;5014373;28;20529;-69
2022/12/10 12:32:24;;;;;;;71.10;28.10;;;;;;;;;;5018730;28;20197;-69
2022/12/10 12:34:55;;;;;;;76.47;29.30;;;;;;;;;;5013074;28;20202;-69
2022/12/10 12:37:27;;;;;;;74.23;30.17;;;;;;;;;;5010676;28;20191;-69
2022/12/10 12:40:12;;;;;;;80.90;29.77;;;;;;;;;;5021707;28;20269;-69
2022/12/10 12:42:41;;;;;;;72.93;29.00;;;;;;;;;;5024845;28;20244;-69
2022/12/10 12:45:30;;;;;;;72.23;29.13;;;;;;;;;;5017127;28;20282;-69
2022/12/10 12:48:05;;;;;;;76.63;29.07;;;;;;;;;;5020854;28;20217;-69
2022/12/10 12:50:40;;;;;;;76.47;30.30;;;;;;;;;;5014202;28;20244;-69
2022/12/10 12:53:10;;;;;;;75.10;29.13;;;;;;;;;;5013653;28;20267;-69
2022/12/10 12:55:56;;;;;;;76.57;28.77;;;;;;;;;;5012595;28;20522;-69
2022/12/10 12:58:27;;;;;;;74.90;27.90;;;;;;;;;;5012527;28;20198;-69
2022/12/10 13:00:58;;;;;;;76.43;30.20;;;;;;;;;;5025474;28;20213;-68
2022/12/10 13:03:44;;;;;;;79.83;29.53;;;;;;;;;;5029798;28;20194;-68
2022/12/10 13:06:21;;;;;;;71.73;28.47;;;;;;;;;;5024477;28;20243;-69
2022/12/10 13:09:13;;;;;;;77.50;29.13;;;;;;;;;;5030484;28;20216;-69
2022/12/10 13:11:44;;;;;;;76.23;29.23;;;;;;;;;;5014513;28;20545;-69
2022/12/10 13:14:09;;;;;;;68.17;28.37;;;;;;;;;;5038968;28;20308;-69
2022/12/10 13:16:38;;;;;;;77.93;29.63;;;;;;;;;;5035409;28;20663;-69
2022/12/10 13:19:19;;;;;;;76.40;28.27;;;;;;;;;;5017999;28;20182;-69
2022/12/10 13:21:50;;;;;;;72.77;28.30;;;;;;;;;;5020521;28;20264;-68
2022/12/10 13:24:19;;;;;;;74.53;29.80;;;;;;;;;;5019863;28;20692;-69
2022/12/10 13:27:04;;;;;;;75.93;28.53;;;;;;;;;;5021213;28;20195;-68
2022/12/10 13:29:43;;;;;;;75.97;27.20;;;;;;;;;;5013588;28;20217;-69
2022/12/10 13:32:14;;;;;;;79.57;30.73;;;;;;;;;;5011176;28;20196;-69
2022/12/10 13:34:39;;;;;;;79.63;29.83;;;;;;;;;;5017715;28;20178;-69
2022/12/10 13:37:12;;;;;;;77.33;28.90;;;;;;;;;;5024712;28;20669;-69
2022/12/10 13:39:54;;;;;;;73.63;30.27;;;;;;;;;;5020792;28;20282;-69
2022/12/10 13:45:22;;;;;;;79.03;28.07;;;;;;;;;;5010686;28;20503;-69
2022/12/10 13:47:52;;;;;;;75.73;27.80;;;;;;;;;;5017112;28;20217;-68
2022/12/10 13:50:35;;;;;;;86.60;29.63;;;;;;;;;;5018181;28;20256;-69
2022/12/10 13:53:15;;;;;;;84.67;28.93;;;;;;;;;;5019589;28;20226;-68
2022/12/10 13:56:08;;;;;;;84.70;28.77;;;;;;;;;;5015091;28;20197;-69
2022/12/10 13:59:01;;;;;;;77.23;28.07;;;;;;;;;;5007899;28;20182;-69
2022/12/10 14:01:39;;;;;;;81.93;29.53;;;;;;;;;;5015457;28;20230;-69
2022/12/10 14:04:31;;;;;;;77.53;28.30;;;;;;;;;;5023553;28;20198;-69
2022/12/10 14:06:57;;;;;;;81.40;28.93;;;;;;;;;;5024007;28;20194;-68
2022/12/10 14:09:46;;;;;;;77.60;28.97;;;;;;;;;;5013005;28;20545;-69
2022/12/10 14:12:18;;;;;;;84.07;29.00;;;;;;;;;;5003884;28;20230;-71
2022/12/10 14:15:01;;;;;;;84.07;30.87;;;;;;;;;;5010156;28;20588;-69
2022/12/10 14:17:36;;;;;;;79.63;27.73;;;;;;;;;;5012514;28;20354;-69
2022/12/10 14:20:06;;;;;;;84.53;29.17;;;;;;;;;;5011746;28;20186;-69
2022/12/10 14:22:44;;;;;;;84.80;29.83;;;;;;;;;;5010669;28;20181;-69
2022/12/10 14:25:16;;;;;;;77.87;28.20;;;;;;;;;;5012076;28;20285;-69
2022/12/10 14:27:41;;;;;;;80.87;28.80;;;;;;;;;;5007371;28;20265;-69
2022/12/10 14:30:20;;;;;;;88.23;29.90;;;;;;;;;;5007798;28;20290;-69
2022/12/10 14:32:46;;;;;;;73.10;27.90;;;;;;;;;;5008815;28;20189;-69
2022/12/10 14:35:21;;;;;;;76.87;27.97;;;;;;;;;;5020861;28;20186;-68
2022/12/10 14:37:49;;;;;;;74.13;28.03;;;;;;;;;;5011515;28;20186;-69
2022/12/10 14:40:24;;;;;;;94.10;31.90;;;;;;;;;;5009601;28;20266;-68
2022/12/10 14:42:52;;;;;;;81.73;28.13;;;;;;;;;;5010744;28;20202;-69
2022/12/10 14:45:18;;;;;;;77.37;28.83;;;;;;;;;;5009650;28;20205;-69
2022/12/10 14:47:43;;;;;;;82.87;29.70;;;;;;;;;;5013292;28;20189;-69
2022/12/10 14:50:15;;;;;;;80.57;28.57;;;;;;;;;;5012471;28;20214;-69